Time;durP1;ratioP1;P1;durP2;ratioP2;P2;SDS_P1;SDS_P2;PMS_P1;PMS_P2;Temp;Humidity;BMP_temperature;BMP_pressure;BME280_temperature;BME280_humidity;BME280_pressure;Samples;Min_cycle;Max_cycle;Signal;HPM_P1;HPM_P2
2022/04/02 00:00:45;;;;;;;5.50;5.00;;;;;;;;;;5049424;28;20040;-72
2022/04/02 00:03:11;;;;;;;5.43;5.03;;;;;;;;;;5051161;28;20032;-73
2022/04/02 00:05:37;;;;;;;5.07;4.68;;;;;;;;;;5032723;28;20504;-72
2022/04/02 00:08:03;;;;;;;5.43;5.13;;;;;;;;;;5050926;28;20516;-72
2022/04/02 00:10:29;;;;;;;4.40;4.00;;;;;;;;;;5049201;28;20515;-73
2022/04/02 00:12:56;;;;;;;4.60;4.30;;;;;;;;;;5033028;28;20037;-72
2022/04/02 00:15:22;;;;;;;6.00;4.80;;;;;;;;;;5049348;28;20033;-72
2022/04/02 00:17:48;;;;;;;5.55;4.28;;;;;;;;;;5033014;28;20063;-73
2022/04/02 00:20:13;;;;;;;5.35;4.85;;;;;;;;;;5050749;28;20211;-74
2022/04/02 00:23:35;;;;;;;7.35;4.90;;;;;;;;;;5050148;28;20569;-73
2022/04/02 00:25:25;;;;;;;5.65;5.25;;;;;;;;;;5050013;28;20087;-72
2022/04/02 00:27:51;;;;;;;6.30;5.45;;;;;;;;;;5050501;28;20404;-72
2022/04/02 00:30:17;;;;;;;5.80;5.30;;;;;;;;;;5050439;28;20116;-72
2022/04/02 00:32:43;;;;;;;7.00;5.13;;;;;;;;;;5049919;28;20059;-73
2022/04/02 00:35:09;;;;;;;5.57;5.07;;;;;;;;;;5016174;28;20033;-72
2022/04/02 00:37:35;;;;;;;6.78;6.28;;;;;;;;;;5032317;28;20028;-72
2022/04/02 00:40:01;;;;;;;6.55;6.15;;;;;;;;;;5050253;28;20086;-72
2022/04/02 00:42:29;;;;;;;6.55;5.95;;;;;;;;;;5049952;28;20084;-73
2022/04/02 00:44:54;;;;;;;9.20;4.53;;;;;;;;;;5032471;28;20060;-73
2022/04/02 00:47:23;;;;;;;5.70;5.20;;;;;;;;;;5032425;28;20056;-73
2022/04/02 00:49:51;;;;;;;7.57;5.55;;;;;;;;;;5050035;28;20052;-73
2022/04/02 00:52:19;;;;;;;6.22;4.93;;;;;;;;;;5016222;28;20127;-72
2022/04/02 00:54:46;;;;;;;6.07;5.57;;;;;;;;;;5049924;28;20044;-72
2022/04/02 00:57:12;;;;;;;6.82;6.15;;;;;;;;;;5032101;28;20037;-72
2022/04/02 00:59:38;;;;;;;4.88;4.47;;;;;;;;;;5031928;28;20064;-72
2022/04/02 01:02:04;;;;;;;6.75;6.15;;;;;;;;;;5049695;28;20496;-72
2022/04/02 01:04:31;;;;;;;8.20;7.35;;;;;;;;;;5031848;28;20075;-72
2022/04/02 01:06:59;;;;;;;7.75;7.05;;;;;;;;;;5031850;28;20041;-72
2022/04/02 01:09:26;;;;;;;7.22;5.70;;;;;;;;;;5031764;28;20060;-72
2022/04/02 01:11:54;;;;;;;6.32;5.75;;;;;;;;;;5031598;28;20044;-72
2022/04/02 01:14:20;;;;;;;8.35;7.65;;;;;;;;;;5015800;28;20479;-71
2022/04/02 01:16:50;;;;;;;8.27;7.53;;;;;;;;;;5031641;28;20036;-72
2022/04/02 01:19:22;;;;;;;8.35;7.65;;;;;;;;;;4999788;28;20029;-70
2022/04/02 01:21:57;;;;;;;8.52;7.93;;;;;;;;;;5016616;28;20048;-72
2022/04/02 01:24:52;;;;;;;6.72;6.10;;;;;;;;;;5043234;28;20128;-71
2022/04/02 01:27:20;;;;;;;7.28;6.57;;;;;;;;;;5031897;28;20032;-71
2022/04/02 02:41:03;;;;;;;4.80;4.50;;;;;;;;;;5067715;28;20112;-72
2022/04/02 02:43:34;;;;;;;5.68;5.18;;;;;;;;;;5091894;28;20055;-73
2022/04/02 02:46:14;;;;;;;5.32;4.93;;;;;;;;;;5108645;28;20427;-73
2022/04/02 02:48:41;;;;;;;5.68;5.28;;;;;;;;;;5108238;28;20047;-73
2022/04/02 02:51:07;;;;;;;6.57;5.05;;;;;;;;;;5108195;28;20036;-73
2022/04/02 02:53:33;;;;;;;5.53;4.72;;;;;;;;;;5092321;28;20052;-72
2022/04/02 02:55:59;;;;;;;4.60;4.30;;;;;;;;;;5092350;28;20039;-72
2022/04/02 02:58:25;;;;;;;4.70;4.40;;;;;;;;;;5091107;28;20161;-73
2022/04/02 03:00:51;;;;;;;5.20;4.22;;;;;;;;;;5108197;28;20036;-73
2022/04/02 03:03:22;;;;;;;6.03;3.70;;;;;;;;;;5091333;28;20631;-72
2022/04/02 03:05:49;;;;;;;6.10;5.60;;;;;;;;;;5108086;28;20040;-73
2022/04/02 03:08:18;;;;;;;6.25;5.85;;;;;;;;;;5107704;28;20603;-74
2022/04/02 03:10:55;;;;;;;4.85;4.32;;;;;;;;;;5092044;28;20131;-74
2022/04/02 03:13:25;;;;;;;5.80;5.40;;;;;;;;;;5107964;28;20127;-72
2022/04/02 03:16:02;;;;;;;5.63;5.22;;;;;;;;;;5107998;28;20036;-73
2022/04/02 03:18:29;;;;;;;6.32;5.82;;;;;;;;;;5091082;28;20097;-72
2022/04/02 03:20:55;;;;;;;5.57;5.18;;;;;;;;;;5090679;28;20048;-73
2022/04/02 03:23:25;;;;;;;6.95;6.40;;;;;;;;;;5107907;28;20050;-74
2022/04/02 03:25:51;;;;;;;7.18;6.68;;;;;;;;;;5090288;28;20055;-73
2022/04/02 03:28:18;;;;;;;6.70;6.20;;;;;;;;;;5107238;28;20101;-72
2022/04/02 03:30:44;;;;;;;6.47;5.88;;;;;;;;;;5090394;28;20056;-73
2022/04/02 03:33:10;;;;;;;5.80;5.40;;;;;;;;;;5090499;28;20039;-73
2022/04/02 03:35:37;;;;;;;6.50;5.90;;;;;;;;;;5090104;28;20592;-74
2022/04/02 03:38:03;;;;;;;5.65;5.25;;;;;;;;;;5090335;28;20082;-72
2022/04/02 03:40:29;;;;;;;5.90;5.43;;;;;;;;;;5090452;28;20036;-73
2022/04/02 03:42:57;;;;;;;7.95;7.35;;;;;;;;;;5089824;28;20596;-72
2022/04/02 03:45:35;;;;;;;5.80;5.30;;;;;;;;;;5090393;28;20070;-75
2022/04/02 03:48:01;;;;;;;5.85;5.35;;;;;;;;;;5090213;28;20043;-73
2022/04/02 03:50:32;;;;;;;7.60;7.00;;;;;;;;;;5057549;28;20047;-74
2022/04/02 03:52:58;;;;;;;6.68;4.68;;;;;;;;;;5073136;28;20282;-74
2022/04/02 03:55:30;;;;;;;6.10;5.60;;;;;;;;;;5090370;28;20032;-72
2022/04/02 03:57:59;;;;;;;7.25;6.55;;;;;;;;;;5089859;28;20467;-73
2022/04/02 04:00:27;;;;;;;6.60;6.00;;;;;;;;;;5091243;28;20553;-73
2022/04/02 04:03:02;;;;;;;5.93;5.35;;;;;;;;;;5106476;28;20478;-72
2022/04/02 04:05:33;;;;;;;7.28;6.72;;;;;;;;;;5089919;28;20500;-71
2022/04/02 04:08:01;;;;;;;7.70;7.00;;;;;;;;;;5089587;28;20048;-73
2022/04/02 04:10:28;;;;;;;6.38;5.78;;;;;;;;;;5055591;28;20086;-73
2022/04/02 04:12:55;;;;;;;6.00;5.60;;;;;;;;;;5089619;28;20047;-72
2022/04/02 04:15:25;;;;;;;8.75;7.95;;;;;;;;;;5107004;28;20040;-72
2022/04/02 04:17:53;;;;;;;6.43;5.93;;;;;;;;;;5090695;28;20136;-72
2022/04/02 04:20:20;;;;;;;7.65;6.95;;;;;;;;;;5106980;28;20442;-73
2022/04/02 04:22:46;;;;;;;6.60;6.10;;;;;;;;;;5106518;28;20551;-73
2022/04/02 04:25:15;;;;;;;5.63;5.18;;;;;;;;;;5106881;28;20097;-74
2022/04/02 04:27:44;;;;;;;8.70;6.82;;;;;;;;;;5089062;28;20408;-73
2022/04/02 04:30:10;;;;;;;6.20;5.80;;;;;;;;;;5089860;28;20079;-73
2022/04/02 04:32:37;;;;;;;8.13;6.50;;;;;;;;;;5089829;28;20048;-73
2022/04/02 04:35:03;;;;;;;6.47;5.78;;;;;;;;;;5072665;28;20043;-74
2022/04/02 04:37:29;;;;;;;7.68;6.97;;;;;;;;;;5090481;28;20104;-73
2022/04/02 04:39:56;;;;;;;8.25;7.45;;;;;;;;;;5089087;28;20036;-72
2022/04/02 04:42:22;;;;;;;6.60;6.00;;;;;;;;;;5090143;28;20051;-71
2022/04/02 04:44:52;;;;;;;7.10;6.50;;;;;;;;;;5089048;28;20126;-72
2022/04/02 04:47:19;;;;;;;8.63;8.02;;;;;;;;;;5088635;28;20052;-72
2022/04/02 04:49:50;;;;;;;8.50;7.80;;;;;;;;;;5090278;28;20036;-72
2022/04/02 04:52:16;;;;;;;7.45;6.80;;;;;;;;;;5090539;28;20085;-72
2022/04/02 04:54:42;;;;;;;8.85;8.15;;;;;;;;;;5089834;28;20044;-72
2022/04/02 04:57:14;;;;;;;6.75;6.13;;;;;;;;;;5089706;28;20067;-72
2022/04/02 04:59:46;;;;;;;6.85;6.30;;;;;;;;;;5089659;28;20047;-71
2022/04/02 05:02:14;;;;;;;6.20;5.68;;;;;;;;;;5072261;28;20606;-71
2022/04/02 05:04:41;;;;;;;7.32;6.72;;;;;;;;;;5088656;28;20044;-72
2022/04/02 05:07:18;;;;;;;7.07;5.72;;;;;;;;;;5088555;28;20421;-72
2022/04/02 05:09:45;;;;;;;6.47;5.90;;;;;;;;;;5088451;28;20059;-71
2022/04/02 05:12:14;;;;;;;6.65;5.68;;;;;;;;;;5071979;28;20038;-71
2022/04/02 05:14:44;;;;;;;;;;;;;;;;;;5088725;28;20051;-72
2022/04/02 05:17:11;;;;;;;7.90;7.28;;;;;;;;;;5088512;28;19915;-72
2022/04/02 05:19:37;;;;;;;8.27;7.68;;;;;;;;;;5089901;28;20437;-73
2022/04/02 05:22:05;;;;;;;7.88;7.18;;;;;;;;;;5087746;28;20429;-73
2022/04/02 05:24:39;;;;;;;6.72;6.20;;;;;;;;;;5122835;27;20073;-72
2022/04/02 05:27:04;;;;;;;7.57;5.35;;;;;;;;;;5088101;28;20059;-73
2022/04/02 05:29:30;;;;;;;8.60;6.13;;;;;;;;;;5088775;28;20064;-73
2022/04/02 05:31:56;;;;;;;6.47;5.88;;;;;;;;;;5085239;28;20732;-74
2022/04/02 05:34:22;;;;;;;7.65;7.05;;;;;;;;;;5087103;28;20040;-73
2022/04/02 05:36:48;;;;;;;7.05;6.45;;;;;;;;;;5088251;28;20116;-73
2022/04/02 05:39:14;;;;;;;6.18;5.68;;;;;;;;;;5087364;28;20050;-73
2022/04/02 05:41:40;;;;;;;7.15;6.55;;;;;;;;;;5086949;28;20052;-73
2022/04/02 05:44:07;;;;;;;10.85;7.60;;;;;;;;;;5070213;28;20076;-73
2022/04/02 05:46:34;;;;;;;6.80;6.22;;;;;;;;;;5087125;28;20519;-74
2022/04/02 05:49:00;;;;;;;6.18;5.68;;;;;;;;;;5088388;28;20518;-73
2022/04/02 05:51:25;;;;;;;3.97;3.67;;;;;;;;;;5104547;28;20051;-72
2022/04/02 05:53:52;;;;;;;5.32;4.90;;;;;;;;;;5107366;28;20126;-73
2022/04/02 05:56:18;;;;;;;8.80;8.10;;;;;;;;;;5108745;28;20233;-74
2022/04/02 05:58:44;;;;;;;7.72;7.13;;;;;;;;;;5092275;28;20036;-74
2022/04/02 06:01:11;;;;;;;7.85;7.05;;;;;;;;;;5112861;28;20075;-73
2022/04/02 06:03:39;;;;;;;7.68;6.93;;;;;;;;;;5107929;28;20123;-73
2022/04/02 06:06:06;;;;;;;7.05;6.45;;;;;;;;;;5092192;28;20036;-73
2022/04/02 06:08:32;;;;;;;6.32;5.82;;;;;;;;;;5092207;28;20036;-73
2022/04/02 06:10:57;;;;;;;7.55;6.85;;;;;;;;;;5087751;28;20479;-73
2022/04/02 06:13:23;;;;;;;6.47;5.32;;;;;;;;;;5091930;28;20068;-73
2022/04/02 06:15:49;;;;;;;8.38;7.57;;;;;;;;;;5091727;28;20415;-74
2022/04/02 06:18:18;;;;;;;10.07;9.10;;;;;;;;;;5090615;28;20075;-73
2022/04/02 06:20:50;;;;;;;8.98;7.10;;;;;;;;;;5090737;28;20368;-73
2022/04/02 06:23:16;;;;;;;9.15;8.43;;;;;;;;;;5090762;28;20059;-73
2022/04/02 06:25:42;;;;;;;7.82;7.22;;;;;;;;;;5091621;28;20036;-73
2022/04/02 06:28:08;;;;;;;9.25;8.55;;;;;;;;;;5101502;28;20131;-73
2022/04/02 06:30:34;;;;;;;6.50;5.90;;;;;;;;;;5091389;28;20032;-72
2022/04/02 06:33:00;;;;;;;7.28;6.60;;;;;;;;;;5091586;28;20039;-72
2022/04/02 06:35:27;;;;;;;4.22;3.88;;;;;;;;;;5090250;28;20048;-73
2022/04/02 06:37:54;;;;;;;7.40;6.80;;;;;;;;;;5090497;28;20051;-73
2022/04/02 06:40:20;;;;;;;6.93;6.30;;;;;;;;;;5090646;28;20104;-73
2022/04/02 06:42:46;;;;;;;12.98;7.68;;;;;;;;;;5073064;28;20063;-72
2022/04/02 06:45:25;;;;;;;8.60;7.90;;;;;;;;;;5091713;28;20043;-72
2022/04/02 06:47:52;;;;;;;8.60;7.80;;;;;;;;;;5106909;28;20047;-73
2022/04/02 06:50:19;;;;;;;9.82;7.70;;;;;;;;;;5104462;28;20043;-72
2022/04/02 06:52:46;;;;;;;7.10;6.50;;;;;;;;;;5110404;28;20042;-74
2022/04/02 06:55:12;;;;;;;8.02;7.32;;;;;;;;;;5111894;27;20054;-71
2022/04/02 06:57:45;;;;;;;9.23;8.52;;;;;;;;;;5110371;28;20462;-72
2022/04/02 07:00:14;;;;;;;7.45;6.70;;;;;;;;;;5112006;28;20130;-73
2022/04/02 07:02:40;;;;;;;8.30;7.60;;;;;;;;;;5110075;28;20043;-72
2022/04/02 07:05:08;;;;;;;7.70;7.00;;;;;;;;;;5093130;28;20059;-72
2022/04/02 07:07:34;;;;;;;8.23;7.43;;;;;;;;;;5111382;28;20043;-72
2022/04/02 07:10:00;;;;;;;9.52;8.60;;;;;;;;;;5110913;28;20062;-71
2022/04/02 07:12:26;;;;;;;9.48;8.38;;;;;;;;;;5109976;28;20035;-73
2022/04/02 07:14:53;;;;;;;9.05;8.38;;;;;;;;;;5111279;28;20044;-72
2022/04/02 07:17:19;;;;;;;8.60;7.90;;;;;;;;;;5092830;28;20047;-72
2022/04/02 07:19:45;;;;;;;7.78;7.18;;;;;;;;;;5111384;28;20051;-72
2022/04/02 07:22:11;;;;;;;5.97;5.40;;;;;;;;;;5111036;28;20047;-71
2022/04/02 07:24:37;;;;;;;8.70;8.10;;;;;;;;;;5111099;28;20471;-71
2022/04/02 07:27:03;;;;;;;7.93;7.30;;;;;;;;;;5100863;28;20452;-72
2022/04/02 07:29:29;;;;;;;8.20;7.50;;;;;;;;;;5091057;28;20044;-72
2022/04/02 07:31:55;;;;;;;7.03;6.35;;;;;;;;;;5090609;28;20043;-72
2022/04/02 07:34:24;;;;;;;18.98;6.32;;;;;;;;;;5089638;28;20040;-71
2022/04/02 07:37:04;;;;;;;7.00;5.65;;;;;;;;;;5089686;28;20139;-73
2022/04/02 07:39:51;;;;;;;6.43;5.85;;;;;;;;;;5089843;28;20048;-72
2022/04/02 07:42:26;;;;;;;5.97;5.50;;;;;;;;;;5090291;28;20063;-72
2022/04/02 07:45:05;;;;;;;7.72;7.13;;;;;;;;;;5091277;28;20419;-73
2022/04/02 07:47:33;;;;;;;8.27;7.57;;;;;;;;;;5090957;28;20042;-73
2022/04/02 07:49:59;;;;;;;7.13;6.55;;;;;;;;;;5094676;28;20040;-72
2022/04/02 07:52:26;;;;;;;8.40;7.65;;;;;;;;;;5100083;28;20051;-74
2022/04/02 07:54:54;;;;;;;7.97;7.38;;;;;;;;;;5099509;28;20036;-75
2022/04/02 07:57:20;;;;;;;6.00;5.50;;;;;;;;;;5098646;28;20040;-72
2022/04/02 07:59:50;;;;;;;7.75;7.20;;;;;;;;;;5127284;27;20052;-75
2022/04/02 08:05:02;;;;;;;9.93;8.93;;;;;;;;;;5089676;28;20047;-74
2022/04/02 08:07:29;;;;;;;10.77;6.65;;;;;;;;;;5072117;28;20070;-75
2022/04/02 08:09:56;;;;;;;4.93;4.53;;;;;;;;;;5090420;28;20086;-74
2022/04/02 08:12:21;;;;;;;6.88;5.38;;;;;;;;;;5124009;27;20530;-74
2022/04/02 08:14:47;;;;;;;7.90;7.28;;;;;;;;;;5089255;28;20040;-73
2022/04/02 08:17:13;;;;;;;5.20;4.63;;;;;;;;;;5088713;28;20043;-74
2022/04/02 08:19:39;;;;;;;10.57;9.75;;;;;;;;;;5089436;28;20036;-72
2022/04/02 08:22:05;;;;;;;7.75;7.15;;;;;;;;;;5088751;28;20055;-73
2022/04/02 08:24:31;;;;;;;6.32;5.80;;;;;;;;;;5089984;28;20043;-73
2022/04/02 08:27:01;;;;;;;7.47;6.88;;;;;;;;;;5090303;28;20139;-74
2022/04/02 08:29:35;;;;;;;8.23;7.53;;;;;;;;;;5086012;28;20052;-72
2022/04/02 08:32:10;;;;;;;4.55;4.25;;;;;;;;;;5087898;28;20147;-74
2022/04/02 08:34:54;;;;;;;9.38;8.48;;;;;;;;;;5094904;28;20054;-72
2022/04/02 08:37:25;;;;;;;8.02;7.53;;;;;;;;;;5094151;28;20124;-72
2022/04/02 08:40:11;;;;;;;7.93;7.30;;;;;;;;;;5068629;28;20047;-73
2022/04/02 08:42:47;;;;;;;7.63;6.85;;;;;;;;;;5102603;28;20105;-72
2022/04/02 08:45:14;;;;;;;7.28;6.68;;;;;;;;;;5101680;28;20047;-73
2022/04/02 08:47:55;;;;;;;5.60;5.20;;;;;;;;;;5099735;28;20048;-72
2022/04/02 08:50:28;;;;;;;7.43;6.88;;;;;;;;;;5101701;28;20051;-72
2022/04/02 08:52:55;;;;;;;5.75;5.05;;;;;;;;;;5095125;28;20040;-73
2022/04/02 08:55:34;;;;;;;6.18;5.57;;;;;;;;;;5097892;28;20060;-73
2022/04/02 08:58:10;;;;;;;9.05;8.25;;;;;;;;;;5095076;28;20068;-70
2022/04/02 09:00:40;;;;;;;7.45;6.95;;;;;;;;;;5090773;28;20047;-72
2022/04/02 09:03:06;;;;;;;8.82;8.07;;;;;;;;;;5090070;28;20052;-72
2022/04/02 09:05:51;;;;;;;8.20;7.50;;;;;;;;;;5090041;28;20503;-71
2022/04/02 09:08:17;;;;;;;8.60;7.90;;;;;;;;;;5089548;28;20040;-72
2022/04/02 09:11:01;;;;;;;8.73;8.02;;;;;;;;;;5089675;28;20042;-71
2022/04/02 09:13:34;;;;;;;6.85;6.30;;;;;;;;;;5089138;28;20099;-72
2022/04/02 09:16:06;;;;;;;8.10;7.50;;;;;;;;;;5088643;28;20036;-71
2022/04/02 09:18:36;;;;;;;6.28;5.68;;;;;;;;;;5089370;28;20040;-72
2022/04/02 09:21:21;;;;;;;6.30;5.80;;;;;;;;;;5088811;28;20507;-73
2022/04/02 09:23:56;;;;;;;6.88;6.28;;;;;;;;;;5070323;28;20365;-71
2022/04/02 09:26:41;;;;;;;7.25;6.57;;;;;;;;;;5086315;28;20040;-72
2022/04/02 09:29:07;;;;;;;7.15;6.55;;;;;;;;;;5083957;28;20050;-72
2022/04/02 09:31:41;;;;;;;5.18;4.70;;;;;;;;;;5088456;28;20499;-72
2022/04/02 09:34:14;;;;;;;8.35;7.65;;;;;;;;;;5069711;28;20043;-72
2022/04/02 09:36:39;;;;;;;5.32;4.93;;;;;;;;;;5089005;28;20043;-71
2022/04/02 09:39:06;;;;;;;8.73;8.05;;;;;;;;;;5088508;28;20492;-73
2022/04/02 09:41:32;;;;;;;6.43;5.93;;;;;;;;;;5087021;28;20044;-72
2022/04/02 09:43:59;;;;;;;9.63;9.00;;;;;;;;;;5087051;28;20040;-72
2022/04/02 09:46:48;;;;;;;6.68;6.18;;;;;;;;;;5087454;28;20044;-72
2022/04/02 09:49:14;;;;;;;6.75;6.15;;;;;;;;;;5076887;28;20036;-72
2022/04/02 09:51:41;;;;;;;8.48;7.78;;;;;;;;;;5088614;28;20101;-71
2022/04/02 09:54:30;;;;;;;8.85;8.25;;;;;;;;;;5086889;28;20054;-71
2022/04/02 09:57:00;;;;;;;7.13;6.63;;;;;;;;;;5076452;28;20070;-72
2022/04/02 09:59:45;;;;;;;8.15;7.45;;;;;;;;;;5086947;28;20502;-72
2022/04/02 10:02:13;;;;;;;7.75;7.18;;;;;;;;;;5086570;28;20059;-72
2022/04/02 10:04:52;;;;;;;6.57;5.97;;;;;;;;;;5069949;28;20044;-71
2022/04/02 10:07:27;;;;;;;6.40;5.90;;;;;;;;;;5087113;28;20044;-73
2022/04/02 10:09:55;;;;;;;7.35;6.85;;;;;;;;;;5087526;28;20044;-72
2022/04/02 10:12:22;;;;;;;7.13;6.63;;;;;;;;;;5090135;28;20051;-72
2022/04/02 10:14:48;;;;;;;6.88;6.38;;;;;;;;;;5071758;28;20432;-73
2022/04/02 10:17:14;;;;;;;7.63;6.93;;;;;;;;;;5088978;28;20036;-72
2022/04/02 10:19:40;;;;;;;8.13;7.53;;;;;;;;;;5070683;28;20050;-71
2022/04/02 10:22:07;;;;;;;7.45;6.90;;;;;;;;;;5089769;28;20534;-73
2022/04/02 10:24:40;;;;;;;7.10;6.60;;;;;;;;;;5090709;28;20044;-74
2022/04/02 10:27:07;;;;;;;5.18;4.78;;;;;;;;;;5103984;28;20553;-72
2022/04/02 10:29:33;;;;;;;7.70;7.10;;;;;;;;;;5090068;28;20063;-72
2022/04/02 10:32:00;;;;;;;6.40;5.90;;;;;;;;;;5089470;28;20072;-73
2022/04/02 10:34:29;;;;;;;11.90;7.75;;;;;;;;;;5071941;28;20066;-72
2022/04/02 10:36:55;;;;;;;8.38;7.78;;;;;;;;;;5088563;28;20044;-73
2022/04/02 10:39:22;;;;;;;7.28;6.75;;;;;;;;;;5089611;28;20044;-72
2022/04/02 10:41:47;;;;;;;6.90;6.22;;;;;;;;;;5087913;28;20409;-73
2022/04/02 10:44:49;;;;;;;5.65;5.15;;;;;;;;;;5090883;28;20062;-72
2022/04/02 10:47:16;;;;;;;6.43;5.93;;;;;;;;;;5026782;28;20063;-71
2022/04/02 10:49:43;;;;;;;5.82;5.43;;;;;;;;;;5078397;28;20040;-73
2022/04/02 10:52:10;;;;;;;5.82;5.32;;;;;;;;;;5088043;28;20127;-72
2022/04/02 10:54:36;;;;;;;6.00;5.50;;;;;;;;;;5082926;28;20044;-71
2022/04/02 10:57:02;;;;;;;7.68;6.20;;;;;;;;;;5087407;28;20039;-72
2022/04/02 10:59:30;;;;;;;6.30;5.78;;;;;;;;;;5077641;28;20403;-74
2022/04/02 11:01:59;;;;;;;7.78;7.07;;;;;;;;;;5089159;28;20438;-72
2022/04/02 11:04:50;;;;;;;6.57;6.10;;;;;;;;;;5078550;28;20058;-71
2022/04/02 11:07:26;;;;;;;10.30;6.35;;;;;;;;;;5104408;28;20043;-71
2022/04/02 11:09:51;;;;;;;8.10;6.97;;;;;;;;;;5091897;28;20067;-71
2022/04/02 11:12:19;;;;;;;7.75;7.13;;;;;;;;;;5111049;28;20071;-71
2022/04/02 11:14:49;;;;;;;8.73;8.10;;;;;;;;;;5093276;27;20048;-72
2022/04/02 11:17:34;;;;;;;8.27;7.57;;;;;;;;;;5090616;28;20146;-71
2022/04/02 11:20:07;;;;;;;5.20;4.82;;;;;;;;;;5087871;28;20051;-69
2022/04/02 11:22:36;;;;;;;7.97;7.18;;;;;;;;;;5105920;28;20055;-71
2022/04/02 11:25:03;;;;;;;10.10;9.30;;;;;;;;;;5090317;28;20039;-71
2022/04/02 11:27:29;;;;;;;4.78;4.45;;;;;;;;;;5088570;28;20036;-71
2022/04/02 11:30:00;;;;;;;5.38;5.07;;;;;;;;;;5071648;28;20523;-71
2022/04/02 11:32:26;;;;;;;11.40;10.50;;;;;;;;;;5085357;28;20051;-71
2022/04/02 11:34:52;;;;;;;9.52;8.73;;;;;;;;;;5090131;28;20507;-70
2022/04/02 11:37:26;;;;;;;9.15;8.45;;;;;;;;;;5090201;28;20032;-71
2022/04/02 11:39:54;;;;;;;13.30;12.20;;;;;;;;;;5069671;28;20091;-71
2022/04/02 11:42:24;;;;;;;10.80;9.90;;;;;;;;;;5079342;28;20052;-70
2022/04/02 11:44:50;;;;;;;11.40;10.48;;;;;;;;;;5071477;28;20047;-71
2022/04/02 11:47:16;;;;;;;10.20;9.40;;;;;;;;;;5089663;28;20039;-70
2022/04/02 11:49:44;;;;;;;11.77;10.77;;;;;;;;;;5088778;28;20040;-70
2022/04/02 11:52:11;;;;;;;13.65;12.32;;;;;;;;;;5088607;28;20039;-71
2022/04/02 11:54:49;;;;;;;11.95;10.95;;;;;;;;;;5089398;28;20047;-72
2022/04/02 11:57:16;;;;;;;11.50;10.30;;;;;;;;;;5089353;28;20504;-72
2022/04/02 12:00:08;;;;;;;14.13;12.57;;;;;;;;;;5089796;28;20111;-71
2022/04/02 12:02:43;;;;;;;14.63;13.43;;;;;;;;;;5088024;28;20045;-71
2022/04/02 12:05:10;;;;;;;12.77;11.65;;;;;;;;;;5088195;28;20044;-71
2022/04/02 12:07:42;;;;;;;13.50;12.35;;;;;;;;;;5088745;28;20534;-71
2022/04/02 12:10:15;;;;;;;9.05;8.20;;;;;;;;;;5089432;28;20162;-71
2022/04/02 12:12:47;;;;;;;16.30;14.77;;;;;;;;;;5089722;28;20060;-70
2022/04/02 12:15:15;;;;;;;16.20;14.63;;;;;;;;;;5088850;28;20040;-72
2022/04/02 12:17:41;;;;;;;9.77;8.88;;;;;;;;;;5090497;28;20040;-70
2022/04/02 12:20:08;;;;;;;11.38;10.27;;;;;;;;;;5089546;28;20043;-71
2022/04/02 12:22:37;;;;;;;12.15;11.02;;;;;;;;;;5090680;28;20044;-71
2022/04/02 12:25:13;;;;;;;14.05;12.65;;;;;;;;;;5087517;28;20067;-72
2022/04/02 12:27:39;;;;;;;16.50;14.90;;;;;;;;;;5092883;28;20039;-72
2022/04/02 12:30:08;;;;;;;14.90;13.48;;;;;;;;;;5086667;28;21058;-72
2022/04/02 12:32:35;;;;;;;18.55;16.52;;;;;;;;;;5088903;28;20044;-72
2022/04/02 12:35:03;;;;;;;11.45;10.55;;;;;;;;;;5088884;28;20039;-70
2022/04/02 12:37:30;;;;;;;17.70;15.93;;;;;;;;;;5089008;28;20098;-72
2022/04/02 12:39:58;;;;;;;15.93;14.32;;;;;;;;;;5087908;28;20082;-73
2022/04/02 12:42:37;;;;;;;14.70;13.45;;;;;;;;;;5087624;28;20063;-73
2022/04/02 12:45:05;;;;;;;12.93;11.73;;;;;;;;;;5086022;28;20050;-72
2022/04/02 12:47:31;;;;;;;15.90;14.52;;;;;;;;;;5087708;28;20047;-72
2022/04/02 12:49:58;;;;;;;9.63;8.73;;;;;;;;;;5085319;28;20048;-72
2022/04/02 12:52:25;;;;;;;12.95;11.35;;;;;;;;;;5076975;28;20044;-73
2022/04/02 12:54:54;;;;;;;14.27;12.85;;;;;;;;;;5086116;28;20059;-72
2022/04/02 12:57:20;;;;;;;15.65;14.15;;;;;;;;;;5086075;28;20028;-73
2022/04/02 12:59:52;;;;;;;15.75;14.45;;;;;;;;;;5087482;28;20100;-73
2022/04/02 13:02:21;;;;;;;11.30;10.45;;;;;;;;;;5091086;28;20055;-72
2022/04/02 13:04:54;;;;;;;11.80;10.65;;;;;;;;;;5083999;28;20055;-73
2022/04/02 13:07:21;;;;;;;14.27;13.00;;;;;;;;;;5086625;28;20047;-73
2022/04/02 13:09:47;;;;;;;12.65;11.65;;;;;;;;;;5086094;28;20054;-73
2022/04/02 13:12:14;;;;;;;15.82;14.60;;;;;;;;;;5088013;28;20511;-72
2022/04/02 13:14:45;;;;;;;12.05;11.15;;;;;;;;;;5080180;28;20749;-72
2022/04/02 13:17:12;;;;;;;12.57;11.38;;;;;;;;;;5086966;28;20447;-71
2022/04/02 13:22:28;;;;;;;11.18;10.23;;;;;;;;;;5085252;28;20452;-72
2022/04/02 13:24:58;;;;;;;14.35;13.38;;;;;;;;;;5085793;28;20044;-72
2022/04/02 13:27:33;;;;;;;11.85;10.85;;;;;;;;;;5101003;28;20130;-72
2022/04/02 13:29:59;;;;;;;12.18;11.07;;;;;;;;;;5089487;28;20040;-73
2022/04/02 13:32:43;;;;;;;11.63;10.60;;;;;;;;;;5088751;28;20050;-71
2022/04/02 13:35:30;;;;;;;13.02;9.52;;;;;;;;;;5088117;28;20782;-71
2022/04/02 13:37:58;;;;;;;10.25;9.38;;;;;;;;;;5078035;28;20504;-72
2022/04/02 13:40:24;;;;;;;10.18;9.18;;;;;;;;;;5087659;28;20031;-71
2022/04/02 13:42:51;;;;;;;10.68;9.88;;;;;;;;;;5086441;28;20056;-73
2022/04/02 13:45:20;;;;;;;9.77;9.02;;;;;;;;;;5087256;28;20503;-71
2022/04/02 13:47:47;;;;;;;10.23;9.52;;;;;;;;;;5088068;28;20837;-71
2022/04/02 13:50:14;;;;;;;5.50;5.10;;;;;;;;;;5087287;28;20071;-72
2022/04/02 13:52:44;;;;;;;8.77;8.10;;;;;;;;;;5086598;28;20455;-72
2022/04/02 13:55:11;;;;;;;9.18;8.52;;;;;;;;;;5070245;28;20036;-71
2022/04/02 13:57:38;;;;;;;7.13;6.63;;;;;;;;;;5088779;28;20044;-72
2022/04/02 14:00:10;;;;;;;9.98;9.27;;;;;;;;;;5087936;28;20058;-73
2022/04/02 14:02:40;;;;;;;7.68;7.18;;;;;;;;;;5080589;28;20054;-73
2022/04/02 14:05:25;;;;;;;6.97;6.47;;;;;;;;;;5077624;28;20041;-73
2022/04/02 14:08:05;;;;;;;6.90;6.40;;;;;;;;;;5087232;28;20040;-71
2022/04/02 14:10:40;;;;;;;8.88;8.18;;;;;;;;;;5096716;28;20044;-72
2022/04/02 14:13:15;;;;;;;7.10;6.60;;;;;;;;;;5088882;28;20040;-74
2022/04/02 14:16:00;;;;;;;6.88;6.38;;;;;;;;;;5089631;28;20040;-74
2022/04/02 14:18:27;;;;;;;8.00;7.50;;;;;;;;;;5077003;28;20048;-73
2022/04/02 14:21:06;;;;;;;8.07;7.47;;;;;;;;;;5074498;28;20036;-74
2022/04/02 14:23:50;;;;;;;7.25;6.68;;;;;;;;;;5076685;28;20064;-74
2022/04/02 14:26:19;;;;;;;7.88;7.28;;;;;;;;;;5085706;28;20051;-73
2022/04/02 14:28:49;;;;;;;6.95;6.45;;;;;;;;;;5120127;28;20523;-72
2022/04/02 14:31:21;;;;;;;7.03;5.97;;;;;;;;;;5096968;28;20093;-73
2022/04/02 14:33:47;;;;;;;9.02;8.43;;;;;;;;;;5092897;28;20496;-73
2022/04/02 14:36:28;;;;;;;7.30;6.70;;;;;;;;;;5092828;28;20097;-74
2022/04/02 14:39:03;;;;;;;8.00;7.30;;;;;;;;;;5091517;28;20071;-73
2022/04/02 14:41:47;;;;;;;7.75;7.15;;;;;;;;;;5091678;28;20446;-73
2022/04/02 14:44:32;;;;;;;6.55;6.15;;;;;;;;;;5091302;28;20043;-74
2022/04/02 14:47:01;;;;;;;8.10;7.60;;;;;;;;;;5090083;28;20134;-74
2022/04/02 14:49:33;;;;;;;7.53;7.03;;;;;;;;;;5090329;28;20459;-73
2022/04/02 14:52:11;;;;;;;6.05;5.57;;;;;;;;;;5090261;28;20040;-73
2022/04/02 14:54:57;;;;;;;6.22;5.82;;;;;;;;;;5087648;28;20047;-73
2022/04/02 14:57:26;;;;;;;5.15;4.78;;;;;;;;;;5091454;28;20186;-72
2022/04/02 15:00:07;;;;;;;7.78;7.18;;;;;;;;;;5091320;28;20036;-72
2022/04/02 15:02:45;;;;;;;7.53;6.82;;;;;;;;;;5091445;28;20523;-73
2022/04/02 15:05:18;;;;;;;7.90;7.28;;;;;;;;;;5090472;28;20139;-71
2022/04/02 15:07:45;;;;;;;8.40;7.80;;;;;;;;;;5083003;28;20102;-71
2022/04/02 15:10:12;;;;;;;9.32;8.57;;;;;;;;;;5099862;28;20051;-71
2022/04/02 15:12:38;;;;;;;9.85;8.88;;;;;;;;;;5089723;28;20040;-73
2022/04/02 15:15:06;;;;;;;10.05;9.15;;;;;;;;;;5090725;28;20055;-73
2022/04/02 15:17:36;;;;;;;7.72;7.22;;;;;;;;;;5090688;28;20853;-74
2022/04/02 15:20:09;;;;;;;9.45;8.75;;;;;;;;;;5090017;28;20048;-72
2022/04/02 15:22:35;;;;;;;9.85;9.18;;;;;;;;;;5089686;28;20048;-73
2022/04/02 15:25:16;;;;;;;7.80;7.22;;;;;;;;;;5089363;28;20082;-71
2022/04/02 15:27:42;;;;;;;;;;;;;;;;;;5106257;28;20044;-72
2022/04/02 15:30:09;;;;;;;7.20;6.63;;;;;;;;;;5110908;28;19916;-73
2022/04/02 15:32:40;;;;;;;6.10;5.63;;;;;;;;;;5091245;28;20047;-73
2022/04/02 15:35:13;;;;;;;6.40;6.00;;;;;;;;;;5089095;28;20032;-73
2022/04/02 15:37:38;;;;;;;4.55;4.25;;;;;;;;;;5089492;28;20141;-73
2022/04/02 15:40:09;;;;;;;6.15;5.30;;;;;;;;;;5089180;28;20044;-73
2022/04/02 15:42:42;;;;;;;8.43;7.73;;;;;;;;;;5090118;28;20438;-72
2022/04/02 15:45:10;;;;;;;6.82;6.32;;;;;;;;;;5089170;28;20365;-72
2022/04/02 15:47:37;;;;;;;7.30;6.80;;;;;;;;;;5088787;28;20044;-73
2022/04/02 15:50:15;;;;;;;7.43;6.72;;;;;;;;;;5090138;28;20369;-72
2022/04/02 15:52:42;;;;;;;5.82;5.43;;;;;;;;;;5088915;28;20054;-70
2022/04/02 15:55:34;;;;;;;6.78;6.18;;;;;;;;;;5090018;28;20043;-72
2022/04/02 15:58:10;;;;;;;5.55;5.15;;;;;;;;;;5061125;28;20048;-72
2022/04/02 16:00:48;;;;;;;6.88;6.38;;;;;;;;;;5069763;28;20558;-73
2022/04/02 16:03:37;;;;;;;6.85;6.35;;;;;;;;;;5088777;28;20101;-72
2022/04/02 16:06:15;;;;;;;5.25;4.85;;;;;;;;;;5088512;28;20048;-72
2022/04/02 16:08:54;;;;;;;8.07;7.47;;;;;;;;;;5089149;28;20040;-73
2022/04/02 16:11:37;;;;;;;6.85;6.35;;;;;;;;;;5090149;28;20040;-73
2022/04/02 16:14:04;;;;;;;6.28;5.88;;;;;;;;;;5071755;28;20047;-73